createdAt,value
2023-02-26T00:00:37.891Z,35.55
2023-02-26T00:03:06.159Z,34.05
2023-02-26T00:05:34.327Z,33.50
2023-02-26T00:08:05.948Z,32.03
2023-02-26T00:10:34.272Z,34.53
2023-02-26T00:13:03.341Z,34.90
2023-02-26T00:15:32.296Z,34.15
2023-02-26T00:18:02.337Z,32.03
2023-02-26T00:20:31.123Z,32.22
2023-02-26T00:22:59.977Z,31.85
2023-02-26T00:25:29.620Z,32.75
2023-02-26T00:27:58.279Z,32.90
2023-02-26T00:30:27.117Z,30.52
2023-02-26T00:32:55.757Z,32.55
2023-02-26T00:35:25.676Z,31.73
2023-02-26T00:38:00.545Z,29.38
2023-02-26T00:40:42.875Z,31.27
2023-02-26T00:43:14.345Z,31.20
2023-02-26T00:45:43.662Z,29.50
2023-02-26T00:48:22.485Z,29.35
2023-02-26T00:50:54.628Z,31.35
2023-02-26T00:53:24.066Z,27.77
2023-02-26T00:55:53.994Z,28.58
2023-02-26T00:58:22.633Z,27.95
2023-02-26T01:00:50.767Z,28.40
2023-02-26T01:03:19.508Z,28.10
2023-02-26T01:05:48.280Z,28.17
2023-02-26T01:08:18.713Z,26.08
2023-02-26T01:10:47.327Z,28.15
2023-02-26T01:13:17.218Z,26.05
2023-02-26T01:15:48.466Z,25.55
2023-02-26T01:18:20.069Z,25.27
2023-02-26T01:20:49.786Z,26.00
2023-02-26T01:23:19.317Z,25.27
2023-02-26T01:25:50.085Z,25.90
2023-02-26T01:28:20.451Z,25.13
2023-02-26T01:30:49.793Z,24.58
2023-02-26T01:33:20.871Z,24.25
2023-02-26T01:35:50.192Z,23.17
2023-02-26T01:38:22.305Z,22.58
2023-02-26T01:41:28.663Z,22.73
2023-02-26T01:44:22.144Z,23.08
2023-02-26T01:47:10.684Z,21.33
2023-02-26T01:49:39.466Z,23.42
2023-02-26T01:52:08.354Z,22.05
2023-02-26T01:54:37.290Z,20.25
2023-02-26T01:57:07.276Z,22.05
2023-02-26T01:59:38.765Z,21.25
2023-02-26T02:02:09.049Z,19.65
2023-02-26T02:04:37.811Z,21.52
2023-02-26T02:07:06.136Z,19.38
2023-02-26T02:09:34.882Z,19.10
2023-02-26T02:12:10.520Z,20.10
2023-02-26T02:14:45.215Z,18.27
2023-02-26T02:17:15.631Z,17.73
2023-02-26T02:20:12.413Z,18.05
2023-02-26T02:22:55.945Z,18.08
2023-02-26T02:26:01.060Z,16.83
2023-02-26T02:28:36.613Z,17.23
2023-02-26T02:31:08.351Z,16.23
2023-02-26T02:33:40.346Z,15.82
2023-02-26T02:36:10.692Z,15.65
2023-02-26T02:38:41.292Z,18.50
2023-02-26T02:41:12.729Z,19.77
2023-02-26T02:43:40.992Z,16.33
2023-02-26T02:46:12.731Z,17.00
2023-02-26T02:48:42.333Z,15.40
2023-02-26T02:51:13.492Z,14.88
2023-02-26T02:53:45.339Z,16.48
2023-02-26T02:56:25.844Z,15.23
2023-02-26T02:59:12.040Z,14.73
2023-02-26T03:01:41.937Z,14.13
2023-02-26T03:04:11.496Z,15.25
2023-02-26T03:06:39.875Z,15.02
2023-02-26T03:09:09.071Z,13.85
2023-02-26T03:11:37.314Z,13.98
2023-02-26T03:14:06.457Z,13.45
2023-02-26T03:16:58.444Z,14.27
2023-02-26T03:19:30.588Z,15.18
2023-02-26T03:22:04.240Z,12.77
2023-02-26T03:24:59.211Z,12.57
2023-02-26T03:27:30.313Z,13.38
2023-02-26T03:30:00.330Z,12.80
2023-02-26T03:32:31.542Z,12.18
2023-02-26T03:35:01.976Z,12.52
2023-02-26T03:37:33.476Z,12.38
2023-02-26T03:40:05.311Z,12.45
2023-02-26T03:42:37.493Z,12.13
2023-02-26T03:45:09.599Z,13.18
2023-02-26T03:47:40.284Z,11.52
2023-02-26T03:50:10.228Z,11.43
2023-02-26T03:52:49.968Z,11.65
2023-02-26T03:55:40.852Z,12.07
2023-02-26T03:58:28.439Z,12.15
2023-02-26T04:01:24.485Z,11.38
2023-02-26T04:03:56.891Z,10.38
2023-02-26T04:06:25.448Z,10.63
2023-02-26T04:08:53.728Z,9.85
2023-02-26T04:11:22.833Z,9.95
2023-02-26T04:13:51.170Z,10.00
2023-02-26T04:16:20.147Z,9.40
2023-02-26T04:18:48.394Z,10.43
2023-02-26T04:21:20.217Z,9.60
2023-02-26T04:23:49.172Z,9.20
2023-02-26T04:26:17.357Z,10.38
2023-02-26T04:28:47.090Z,9.02
2023-02-26T04:31:15.911Z,9.02
2023-02-26T04:33:44.312Z,9.50
2023-02-26T04:36:12.853Z,8.45
2023-02-26T04:38:42.379Z,9.30
2023-02-26T04:41:10.595Z,8.13
2023-02-26T04:43:39.120Z,8.82
2023-02-26T04:46:21.285Z,9.35
2023-02-26T04:48:49.610Z,9.52
2023-02-26T04:51:18.235Z,8.70
2023-02-26T04:53:48.231Z,8.48
2023-02-26T04:56:16.512Z,8.75
2023-02-26T04:58:46.040Z,7.97
2023-02-26T05:01:19.158Z,9.50
2023-02-26T05:03:47.479Z,7.68
2023-02-26T05:06:16.019Z,8.15
2023-02-26T05:08:44.398Z,7.72
2023-02-26T05:11:14.035Z,7.72
2023-02-26T05:13:42.346Z,7.53
2023-02-26T05:16:10.675Z,7.32
2023-02-26T05:18:39.048Z,7.68
2023-02-26T05:21:07.582Z,7.75
2023-02-26T05:23:35.933Z,7.95
2023-02-26T05:26:04.141Z,6.70
2023-02-26T05:28:36.665Z,6.70
2023-02-26T05:31:04.987Z,6.72
2023-02-26T05:33:33.079Z,6.63
2023-02-26T05:36:01.290Z,7.30
2023-02-26T05:38:29.438Z,7.18
2023-02-26T05:40:58.648Z,7.60
2023-02-26T05:43:27.125Z,6.40
2023-02-26T05:45:56.913Z,6.38
2023-02-26T05:48:25.150Z,6.03
2023-02-26T05:50:53.418Z,6.43
2023-02-26T05:53:21.786Z,6.43
2023-02-26T05:55:50.540Z,6.20
2023-02-26T05:58:18.762Z,7.07
2023-02-26T06:00:46.938Z,6.45
2023-02-26T06:03:16.665Z,6.15
2023-02-26T06:05:44.862Z,7.05
2023-02-26T06:08:15.679Z,6.85
2023-02-26T06:10:44.022Z,5.80
2023-02-26T06:13:12.300Z,5.80
2023-02-26T06:15:40.557Z,5.80
2023-02-26T06:18:09.005Z,5.45
2023-02-26T06:20:38.840Z,5.50
2023-02-26T06:23:07.019Z,6.00
2023-02-26T06:25:35.183Z,6.13
2023-02-26T06:28:03.362Z,5.93
2023-02-26T06:30:31.862Z,6.28
2023-02-26T06:33:00.081Z,6.07
2023-02-26T06:35:30.364Z,6.38
2023-02-26T06:38:00.106Z,6.88
2023-02-26T06:40:39.873Z,11.27
2023-02-26T06:43:08.202Z,8.70
2023-02-26T06:45:36.405Z,14.60
2023-02-26T06:48:04.773Z,17.02
2023-02-26T06:50:32.992Z,19.23
2023-02-26T06:53:02.650Z,25.83
2023-02-26T06:55:30.771Z,30.00
2023-02-26T06:57:59.008Z,25.05
2023-02-26T07:00:27.264Z,29.33
2023-02-26T07:02:55.515Z,36.53
2023-02-26T07:05:24.206Z,25.75
2023-02-26T07:07:52.404Z,39.47
2023-02-26T07:10:22.604Z,41.67
2023-02-26T07:12:50.786Z,38.75
2023-02-26T07:15:18.972Z,42.08
2023-02-26T07:17:47.144Z,36.95
2023-02-26T07:20:15.415Z,34.25
2023-02-26T07:22:44.046Z,36.72
2023-02-26T07:25:12.399Z,43.40
2023-02-26T07:27:43.801Z,37.90
2023-02-26T07:30:13.182Z,34.53
2023-02-26T07:32:41.356Z,32.83
2023-02-26T07:35:10.389Z,37.08
2023-02-26T07:37:39.469Z,34.83
2023-02-26T07:40:08.726Z,35.72
2023-02-26T07:42:36.887Z,35.90
2023-02-26T07:45:08.209Z,40.28
2023-02-26T07:47:36.536Z,41.95
2023-02-26T07:50:05.066Z,40.00
2023-02-26T07:52:33.203Z,39.30
2023-02-26T07:55:01.412Z,43.10
2023-02-26T07:57:29.533Z,44.47
2023-02-26T07:59:57.683Z,52.63
2023-02-26T08:02:27.340Z,44.65
2023-02-26T08:04:55.528Z,47.70
2023-02-26T08:07:23.673Z,42.60
2023-02-26T08:09:51.814Z,39.28
2023-02-26T08:12:20.050Z,39.85
2023-02-26T08:14:48.441Z,39.88
2023-02-26T08:17:16.652Z,44.00
2023-02-26T08:19:46.191Z,49.50
2023-02-26T08:22:14.296Z,45.85
2023-02-26T08:24:42.955Z,45.88
2023-02-26T08:27:12.685Z,45.60
2023-02-26T08:29:41.763Z,43.97
2023-02-26T08:32:10.552Z,46.88
2023-02-26T08:34:38.995Z,41.05
2023-02-26T08:37:11.740Z,44.13
2023-02-26T08:39:40.041Z,41.53
2023-02-26T08:42:08.541Z,43.97
2023-02-26T08:44:36.876Z,38.70
2023-02-26T08:47:05.197Z,45.97
2023-02-26T08:49:33.419Z,41.85
2023-02-26T08:52:01.820Z,44.85
2023-02-26T08:54:31.459Z,46.22
2023-02-26T08:57:00.058Z,41.03
2023-02-26T08:59:28.237Z,41.17
2023-02-26T09:01:56.530Z,40.22
2023-02-26T09:04:24.636Z,41.80
2023-02-26T09:06:52.866Z,39.35
2023-02-26T09:09:21.161Z,41.67
2023-02-26T09:11:50.830Z,42.35
2023-02-26T09:14:19.008Z,39.83
2023-02-26T09:16:48.909Z,41.33
2023-02-26T09:19:19.052Z,38.50
2023-02-26T09:21:47.161Z,40.67
2023-02-26T09:24:15.397Z,37.97
2023-02-26T09:26:43.797Z,36.53
2023-02-26T09:29:14.564Z,39.70
2023-02-26T09:31:42.825Z,37.45
2023-02-26T09:34:11.643Z,38.17
2023-02-26T09:36:39.923Z,38.28
2023-02-26T09:39:08.864Z,35.78
2023-02-26T09:41:39.668Z,39.38
2023-02-26T09:44:22.405Z,35.97
2023-02-26T09:46:55.262Z,35.75
2023-02-26T09:49:28.575Z,35.17
2023-02-26T09:51:58.539Z,33.97
2023-02-26T09:54:27.961Z,38.78
2023-02-26T09:56:58.424Z,34.13
2023-02-26T09:59:28.668Z,36.58
2023-02-26T10:01:59.829Z,35.00
2023-02-26T10:04:45.673Z,32.83
2023-02-26T10:07:18.219Z,32.83
2023-02-26T10:09:56.265Z,32.22
2023-02-26T10:12:26.114Z,31.15
2023-02-26T10:14:57.037Z,31.35
2023-02-26T10:17:30.165Z,31.10
2023-02-26T10:20:10.296Z,31.10
2023-02-26T10:22:42.077Z,30.20
2023-02-26T10:25:12.608Z,29.48
2023-02-26T10:27:50.351Z,33.17
2023-02-26T10:30:23.591Z,28.08
2023-02-26T10:32:56.819Z,28.48
2023-02-26T10:35:26.198Z,26.52
2023-02-26T10:37:56.504Z,29.33
2023-02-26T10:40:27.922Z,30.48
2023-02-26T10:42:58.282Z,34.53
2023-02-26T10:45:34.740Z,34.80
2023-02-26T10:48:22.232Z,33.83
2023-02-26T10:50:51.401Z,37.63
2023-02-26T10:53:19.550Z,34.05
2023-02-26T10:55:48.582Z,36.60
2023-02-26T10:58:18.360Z,36.58
2023-02-26T11:00:50.174Z,36.58
2023-02-26T11:03:20.615Z,37.03
2023-02-26T11:05:49.379Z,37.80
2023-02-26T11:08:19.489Z,41.78
2023-02-26T11:10:50.147Z,39.47
2023-02-26T11:13:18.366Z,44.15
2023-02-26T11:15:50.015Z,41.78
2023-02-26T11:18:20.823Z,45.47
2023-02-26T11:20:49.091Z,42.58
2023-02-26T11:23:19.944Z,42.88
2023-02-26T11:25:48.200Z,40.78
2023-02-26T11:28:22.027Z,41.28
2023-02-26T11:30:54.500Z,43.05
2023-02-26T11:33:29.031Z,45.72
2023-02-26T11:35:58.128Z,54.10
2023-02-26T11:38:27.243Z,51.72
2023-02-26T11:40:57.200Z,54.78
2023-02-26T11:43:28.038Z,52.05
2023-02-26T11:46:00.868Z,51.13
2023-02-26T11:48:30.685Z,58.47
2023-02-26T11:51:00.354Z,56.85
2023-02-26T11:53:32.482Z,53.55
2023-02-26T11:56:03.822Z,52.78
2023-02-26T11:58:36.425Z,51.67
2023-02-26T12:01:06.432Z,52.53
2023-02-26T12:03:35.318Z,54.55
2023-02-26T12:06:04.560Z,57.60
2023-02-26T12:08:38.374Z,54.22
2023-02-26T12:11:28.413Z,53.00
2023-02-26T12:14:03.320Z,53.67
2023-02-26T12:16:36.619Z,50.42
2023-02-26T12:19:07.524Z,51.28
2023-02-26T12:21:51.848Z,51.47
2023-02-26T12:24:59.135Z,50.03
2023-02-26T12:27:32.041Z,47.60
2023-02-26T12:30:23.330Z,46.08
2023-02-26T12:33:12.853Z,45.47
2023-02-26T12:35:45.344Z,43.90
2023-02-26T12:38:21.459Z,45.70
2023-02-26T12:41:08.309Z,43.47
2023-02-26T12:43:40.425Z,41.10
2023-02-26T12:46:13.227Z,42.72
2023-02-26T12:49:07.725Z,42.13
2023-02-26T12:51:43.879Z,43.88
2023-02-26T12:54:23.859Z,43.60
2023-02-26T12:57:40.866Z,44.80
2023-02-26T13:00:18.261Z,47.20
2023-02-26T13:03:34.438Z,49.13
2023-02-26T13:06:24.756Z,50.03
2023-02-26T13:08:56.357Z,46.63
2023-02-26T13:11:29.959Z,48.08
2023-02-26T13:14:05.997Z,48.50
2023-02-26T13:16:40.033Z,52.20
2023-02-26T13:19:16.024Z,51.13
2023-02-26T13:21:48.287Z,50.28
2023-02-26T13:24:17.852Z,48.67
2023-02-26T13:26:46.145Z,49.17
2023-02-26T13:29:16.865Z,50.55
2023-02-26T13:31:46.343Z,48.63
2023-02-26T13:34:17.223Z,51.83
2023-02-26T13:36:46.909Z,54.28
2023-02-26T13:39:36.256Z,53.15
2023-02-26T13:42:08.053Z,58.20
2023-02-26T13:44:40.049Z,56.90
2023-02-26T13:47:20.924Z,58.75
2023-02-26T13:49:54.786Z,59.55
2023-02-26T13:52:29.076Z,64.85
2023-02-26T13:54:59.358Z,63.90
2023-02-26T13:57:36.139Z,64.90
2023-02-26T14:00:13.320Z,63.10
2023-02-26T14:02:53.294Z,63.40
2023-02-26T14:05:36.072Z,65.90
2023-02-26T14:08:39.382Z,66.50
2023-02-26T14:11:48.553Z,66.00
2023-02-26T14:14:38.213Z,66.35
2023-02-26T14:17:31.861Z,70.60
2023-02-26T14:20:25.257Z,66.72
2023-02-26T14:22:55.698Z,69.93
2023-02-26T14:25:33.145Z,69.28
2023-02-26T14:28:36.037Z,68.65
2023-02-26T14:31:19.865Z,65.85
2023-02-26T14:33:50.465Z,68.32
2023-02-26T14:36:21.748Z,66.45
2023-02-26T14:38:50.305Z,65.28
2023-02-26T14:41:27.386Z,63.13
2023-02-26T14:44:00.624Z,64.63
2023-02-26T14:46:29.059Z,63.28
2023-02-26T14:48:57.763Z,63.35
2023-02-26T14:51:31.219Z,73.15
2023-02-26T14:54:09.795Z,62.22
2023-02-26T14:56:53.560Z,58.20
2023-02-26T14:59:30.140Z,71.97
2023-02-26T15:02:03.318Z,63.13
2023-02-26T15:04:53.348Z,62.58
2023-02-26T15:07:29.484Z,61.90
2023-02-26T15:10:09.813Z,60.63
2023-02-26T15:12:45.401Z,62.60
2023-02-26T15:15:30.476Z,58.85
2023-02-26T15:18:17.652Z,62.70
2023-02-26T15:20:50.170Z,62.97
2023-02-26T15:23:38.278Z,61.03
2023-02-26T15:26:07.000Z,63.60
2023-02-26T15:28:38.109Z,62.65
2023-02-26T15:31:06.916Z,64.18
2023-02-26T15:33:35.473Z,62.63
2023-02-26T15:36:07.659Z,72.93
2023-02-26T15:38:41.753Z,70.13
2023-02-26T15:41:09.874Z,65.60
2023-02-26T15:43:39.521Z,65.78
2023-02-26T15:46:08.098Z,66.80
2023-02-26T15:48:38.651Z,66.97
2023-02-26T15:51:07.968Z,66.30
2023-02-26T15:53:38.005Z,61.60
2023-02-26T15:56:07.447Z,60.03
2023-02-26T15:58:37.862Z,63.60
2023-02-26T16:01:07.536Z,62.00
2023-02-26T16:03:38.725Z,61.33
2023-02-26T16:06:08.837Z,60.88
2023-02-26T16:08:37.031Z,62.13
2023-02-26T16:11:06.257Z,65.18
2023-02-26T16:13:37.820Z,62.50
2023-02-26T16:16:10.067Z,69.13
2023-02-26T16:18:38.418Z,66.97
2023-02-26T16:21:07.711Z,68.53
2023-02-26T16:23:42.051Z,66.28
2023-02-26T16:26:10.856Z,68.13
2023-02-26T16:28:45.597Z,68.53
2023-02-26T16:31:19.346Z,65.40
2023-02-26T16:33:58.757Z,68.53
2023-02-26T16:36:28.856Z,65.03
2023-02-26T16:39:11.846Z,66.80
2023-02-26T16:41:40.955Z,61.33
2023-02-26T16:44:46.052Z,65.10
2023-02-26T16:47:15.946Z,61.92
2023-02-26T16:49:44.110Z,64.10
2023-02-26T16:52:17.205Z,61.92
2023-02-26T16:54:45.716Z,62.92
2023-02-26T16:57:16.185Z,64.32
2023-02-26T16:59:44.474Z,61.75
2023-02-26T17:02:15.638Z,60.72
2023-02-26T17:04:43.784Z,59.10
2023-02-26T17:07:18.795Z,55.33
2023-02-26T17:09:49.480Z,55.25
2023-02-26T17:12:18.503Z,53.45
2023-02-26T17:14:48.058Z,52.35
2023-02-26T17:17:18.317Z,56.05
2023-02-26T17:19:46.476Z,49.58
2023-02-26T17:22:18.749Z,51.63
2023-02-26T17:24:47.598Z,48.75
2023-02-26T17:27:18.210Z,47.80
2023-02-26T17:29:47.270Z,43.40
2023-02-26T17:32:21.856Z,47.10
2023-02-26T17:34:50.264Z,44.88
2023-02-26T17:37:18.396Z,43.90
2023-02-26T17:39:46.640Z,41.42
2023-02-26T17:42:16.564Z,39.70
2023-02-26T17:44:44.981Z,43.00
2023-02-26T17:47:14.537Z,40.75
2023-02-26T17:49:44.271Z,49.72
2023-02-26T17:52:12.494Z,52.20
2023-02-26T17:54:40.753Z,52.92
2023-02-26T17:57:09.381Z,46.75
2023-02-26T17:59:37.727Z,50.67
2023-02-26T18:02:13.231Z,56.25
2023-02-26T18:04:41.718Z,52.97
2023-02-26T18:07:15.968Z,57.25
2023-02-26T18:09:44.538Z,54.10
2023-02-26T18:12:14.023Z,55.33
2023-02-26T18:14:42.260Z,56.25
2023-02-26T18:17:14.672Z,52.53
2023-02-26T18:19:43.044Z,54.83
2023-02-26T18:22:14.749Z,54.20
2023-02-26T18:24:43.092Z,54.92
2023-02-26T18:27:14.360Z,52.38
2023-02-26T18:29:42.581Z,57.20
2023-02-26T18:32:13.669Z,53.85
2023-02-26T18:34:42.045Z,54.03
2023-02-26T18:37:13.357Z,51.30
2023-02-26T18:39:41.669Z,56.33
2023-02-26T18:42:13.009Z,58.28
2023-02-26T18:44:41.239Z,58.35
2023-02-26T18:47:10.484Z,63.08
2023-02-26T18:49:38.657Z,64.85
2023-02-26T18:52:06.748Z,61.90
2023-02-26T18:54:37.048Z,68.20
2023-02-26T18:57:05.413Z,66.70
2023-02-26T18:59:34.429Z,69.35
2023-02-26T19:02:03.247Z,67.90
2023-02-26T19:04:31.738Z,70.25
2023-02-26T19:06:59.949Z,70.57
2023-02-26T19:09:28.907Z,66.85
2023-02-26T19:11:58.550Z,71.00
2023-02-26T19:14:26.740Z,67.00
2023-02-26T19:16:54.969Z,69.32
2023-02-26T19:19:23.148Z,69.03
2023-02-26T19:21:51.404Z,71.68
2023-02-26T19:24:19.664Z,77.60
2023-02-26T19:26:47.796Z,72.57
2023-02-26T19:29:18.321Z,73.47
2023-02-26T19:31:46.777Z,75.50
2023-02-26T19:34:15.148Z,76.13
2023-02-26T19:36:48.509Z,77.05
2023-02-26T19:39:17.318Z,74.03
2023-02-26T19:41:45.844Z,77.65
2023-02-26T19:44:13.955Z,75.57
2023-02-26T19:46:43.617Z,73.97
2023-02-26T19:49:11.917Z,74.72
2023-02-26T19:51:40.011Z,74.32
2023-02-26T19:54:08.088Z,71.60
2023-02-26T19:56:36.479Z,74.32
2023-02-26T19:59:04.751Z,74.30
2023-02-26T20:01:33.042Z,73.85
2023-02-26T20:04:02.763Z,72.45
2023-02-26T20:06:30.884Z,86.97
2023-02-26T20:08:59.211Z,78.35
2023-02-26T20:11:27.607Z,73.93
2023-02-26T20:13:55.928Z,75.82
2023-02-26T20:16:24.033Z,77.75
2023-02-26T20:18:52.152Z,80.13
2023-02-26T20:21:22.325Z,75.65
2023-02-26T20:23:50.494Z,75.45
2023-02-26T20:26:18.712Z,79.45
2023-02-26T20:28:46.860Z,81.00
2023-02-26T20:31:15.095Z,83.63
2023-02-26T20:33:44.564Z,79.75
2023-02-26T20:36:12.960Z,81.35
2023-02-26T20:38:42.955Z,84.82
2023-02-26T20:41:11.158Z,85.18
2023-02-26T20:43:39.359Z,81.72
2023-02-26T20:46:07.578Z,83.60
2023-02-26T20:48:40.403Z,81.05
2023-02-26T20:51:10.044Z,77.97
2023-02-26T20:53:38.220Z,76.95
2023-02-26T20:56:09.088Z,80.63
2023-02-26T20:58:38.409Z,81.97
2023-02-26T21:01:06.634Z,77.55
2023-02-26T21:03:34.772Z,78.35
2023-02-26T21:06:02.876Z,80.20
2023-02-26T21:08:31.048Z,76.97
2023-02-26T21:10:59.216Z,81.07
2023-02-26T21:13:28.644Z,78.75
2023-02-26T21:15:57.414Z,76.75
2023-02-26T21:18:25.544Z,76.20
2023-02-26T21:20:53.694Z,76.68
2023-02-26T21:23:21.914Z,75.90
2023-02-26T21:25:50.081Z,73.88
2023-02-26T21:28:18.094Z,74.15
2023-02-26T21:30:47.657Z,73.88
2023-02-26T21:33:15.844Z,76.25
2023-02-26T21:35:44.018Z,74.03
2023-02-26T21:38:12.437Z,73.90
2023-02-26T21:40:40.587Z,74.22
2023-02-26T21:43:10.673Z,70.03
2023-02-26T21:45:38.862Z,72.28
2023-02-26T21:48:08.493Z,68.40
2023-02-26T21:50:36.689Z,68.47
2023-02-26T21:53:04.883Z,69.25
2023-02-26T21:55:33.095Z,66.68
2023-02-26T21:58:02.137Z,67.10
2023-02-26T22:00:30.341Z,65.63
2023-02-26T22:02:58.473Z,65.80
2023-02-26T22:05:28.052Z,69.28
2023-02-26T22:07:56.356Z,65.72
2023-02-26T22:10:24.531Z,71.47
2023-02-26T22:12:52.726Z,67.47
2023-02-26T22:15:21.334Z,63.47
2023-02-26T22:17:49.485Z,62.67
2023-02-26T22:20:17.888Z,62.78
2023-02-26T22:22:47.465Z,63.80
2023-02-26T22:25:15.583Z,59.90
2023-02-26T22:27:43.747Z,58.75
2023-02-26T22:30:13.112Z,60.03
2023-02-26T22:32:41.379Z,57.45
2023-02-26T22:35:11.082Z,56.95
2023-02-26T22:37:39.245Z,60.53
2023-02-26T22:40:10.020Z,55.00
2023-02-26T22:42:38.292Z,53.97
2023-02-26T22:45:07.411Z,56.03
2023-02-26T22:47:35.676Z,53.83
2023-02-26T22:50:03.956Z,53.08
2023-02-26T22:52:32.198Z,53.53
2023-02-26T22:55:00.386Z,53.22
2023-02-26T22:57:30.041Z,49.95
2023-02-26T22:59:58.415Z,52.47
2023-02-26T23:02:26.711Z,52.55
2023-02-26T23:04:55.043Z,50.60
2023-02-26T23:07:23.569Z,50.38
2023-02-26T23:09:52.559Z,48.83
2023-02-26T23:12:20.663Z,47.97
2023-02-26T23:14:50.255Z,49.20
2023-02-26T23:17:18.434Z,47.33
2023-02-26T23:19:46.688Z,47.22
2023-02-26T23:22:14.796Z,45.92
2023-02-26T23:24:43.055Z,47.70
2023-02-26T23:27:11.540Z,46.08
2023-02-26T23:29:39.735Z,44.72
2023-02-26T23:32:09.352Z,44.75
2023-02-26T23:34:37.566Z,44.35
2023-02-26T23:37:05.631Z,43.92
2023-02-26T23:39:33.872Z,44.83
2023-02-26T23:42:02.131Z,42.83
2023-02-26T23:44:30.522Z,43.40
2023-02-26T23:46:58.595Z,41.08
2023-02-26T23:49:28.203Z,40.40
2023-02-26T23:51:56.411Z,41.08
2023-02-26T23:54:24.696Z,38.53
2023-02-26T23:56:52.755Z,37.50
2023-02-26T23:59:20.797Z,40.30
